sensor_id;sensor_type;location;lat;lon;timestamp;P1;durP1;ratioP1;P2;durP2;ratioP2
2111;SDS011;1062;52.538;13.400;2023-04-06T00:00:50;10.50;;;8.27;;
2111;SDS011;1062;52.538;13.400;2023-04-06T00:03:17;5.47;;;4.97;;
2111;SDS011;1062;52.538;13.400;2023-04-06T00:05:43;5.60;;;5.10;;
2111;SDS011;1062;52.538;13.400;2023-04-06T00:08:09;13.03;;;5.17;;
2111;SDS011;1062;52.538;13.400;2023-04-06T00:10:35;5.57;;;5.07;;
2111;SDS011;1062;52.538;13.400;2023-04-06T00:13:01;6.67;;;5.20;;
2111;SDS011;1062;52.538;13.400;2023-04-06T00:15:27;6.63;;;5.03;;
2111;SDS011;1062;52.538;13.400;2023-04-06T00:17:52;5.30;;;4.73;;
2111;SDS011;1062;52.538;13.400;2023-04-06T00:20:18;6.73;;;4.57;;
2111;SDS011;1062;52.538;13.400;2023-04-06T00:22:44;7.30;;;4.50;;
2111;SDS011;1062;52.538;13.400;2023-04-06T00:25:10;6.77;;;5.57;;
2111;SDS011;1062;52.538;13.400;2023-04-06T00:27:37;4.90;;;4.20;;
2111;SDS011;1062;52.538;13.400;2023-04-06T00:30:06;5.60;;;4.90;;
2111;SDS011;1062;52.538;13.400;2023-04-06T00:32:34;4.90;;;4.40;;
2111;SDS011;1062;52.538;13.400;2023-04-06T00:35:01;8.20;;;4.57;;
2111;SDS011;1062;52.538;13.400;2023-04-06T00:37:30;4.00;;;3.70;;
2111;SDS011;1062;52.538;13.400;2023-04-06T00:39:56;4.73;;;4.07;;
2111;SDS011;1062;52.538;13.400;2023-04-06T00:42:22;7.67;;;4.07;;
2111;SDS011;1062;52.538;13.400;2023-04-06T00:44:54;6.20;;;4.50;;
2111;SDS011;1062;52.538;13.400;2023-04-06T00:47:21;4.40;;;4.00;;
2111;SDS011;1062;52.538;13.400;2023-04-06T00:49:48;5.40;;;4.37;;
2111;SDS011;1062;52.538;13.400;2023-04-06T00:52:14;6.57;;;4.10;;
2111;SDS011;1062;52.538;13.400;2023-04-06T00:54:40;4.30;;;3.80;;
2111;SDS011;1062;52.538;13.400;2023-04-06T00:57:06;10.33;;;3.70;;
2111;SDS011;1062;52.538;13.400;2023-04-06T00:59:32;5.20;;;3.33;;
2111;SDS011;1062;52.538;13.400;2023-04-06T01:01:58;5.47;;;3.80;;
2111;SDS011;1062;52.538;13.400;2023-04-06T01:04:23;4.83;;;3.90;;
2111;SDS011;1062;52.538;13.400;2023-04-06T01:06:50;7.33;;;3.77;;
2111;SDS011;1062;52.538;13.400;2023-04-06T01:09:16;6.73;;;3.63;;
2111;SDS011;1062;52.538;13.400;2023-04-06T01:11:42;4.17;;;3.60;;
2111;SDS011;1062;52.538;13.400;2023-04-06T01:14:08;5.07;;;3.77;;
2111;SDS011;1062;52.538;13.400;2023-04-06T01:16:34;4.23;;;3.33;;
2111;SDS011;1062;52.538;13.400;2023-04-06T01:19:00;6.50;;;4.47;;
2111;SDS011;1062;52.538;13.400;2023-04-06T01:21:31;3.97;;;3.63;;
2111;SDS011;1062;52.538;13.400;2023-04-06T01:23:57;5.70;;;4.50;;
2111;SDS011;1062;52.538;13.400;2023-04-06T01:26:22;6.27;;;3.83;;
2111;SDS011;1062;52.538;13.400;2023-04-06T01:28:48;10.43;;;3.60;;
2111;SDS011;1062;52.538;13.400;2023-04-06T01:31:14;3.40;;;3.10;;
2111;SDS011;1062;52.538;13.400;2023-04-06T01:33:40;5.33;;;3.63;;
2111;SDS011;1062;52.538;13.400;2023-04-06T01:36:06;4.40;;;3.23;;
2111;SDS011;1062;52.538;13.400;2023-04-06T01:38:31;3.87;;;3.27;;
2111;SDS011;1062;52.538;13.400;2023-04-06T01:40:57;4.57;;;3.47;;
2111;SDS011;1062;52.538;13.400;2023-04-06T01:43:23;3.90;;;3.00;;
2111;SDS011;1062;52.538;13.400;2023-04-06T01:45:48;7.23;;;3.80;;
2111;SDS011;1062;52.538;13.400;2023-04-06T01:48:14;3.50;;;3.20;;
2111;SDS011;1062;52.538;13.400;2023-04-06T01:50:40;5.63;;;4.20;;
2111;SDS011;1062;52.538;13.400;2023-04-06T01:53:06;4.80;;;3.80;;
2111;SDS011;1062;52.538;13.400;2023-04-06T01:55:33;7.70;;;3.87;;
2111;SDS011;1062;52.538;13.400;2023-04-06T01:57:58;4.53;;;3.40;;
2111;SDS011;1062;52.538;13.400;2023-04-06T02:00:24;4.63;;;3.57;;
2111;SDS011;1062;52.538;13.400;2023-04-06T02:02:50;5.17;;;3.57;;
2111;SDS011;1062;52.538;13.400;2023-04-06T02:05:15;8.70;;;5.00;;
2111;SDS011;1062;52.538;13.400;2023-04-06T02:07:41;3.77;;;3.47;;
2111;SDS011;1062;52.538;13.400;2023-04-06T02:10:11;3.97;;;3.50;;
2111;SDS011;1062;52.538;13.400;2023-04-06T02:12:37;4.50;;;3.70;;
2111;SDS011;1062;52.538;13.400;2023-04-06T02:15:03;3.63;;;3.30;;
2111;SDS011;1062;52.538;13.400;2023-04-06T02:17:29;7.77;;;3.83;;
2111;SDS011;1062;52.538;13.400;2023-04-06T02:19:55;3.90;;;3.57;;
2111;SDS011;1062;52.538;13.400;2023-04-06T02:22:20;4.90;;;3.40;;
2111;SDS011;1062;52.538;13.400;2023-04-06T02:24:46;3.50;;;3.20;;
2111;SDS011;1062;52.538;13.400;2023-04-06T02:27:13;4.07;;;3.67;;
2111;SDS011;1062;52.538;13.400;2023-04-06T02:29:39;5.20;;;4.07;;
2111;SDS011;1062;52.538;13.400;2023-04-06T02:32:05;4.80;;;3.00;;
2111;SDS011;1062;52.538;13.400;2023-04-06T02:34:31;5.83;;;3.50;;
2111;SDS011;1062;52.538;13.400;2023-04-06T02:36:57;5.97;;;3.60;;
2111;SDS011;1062;52.538;13.400;2023-04-06T02:39:23;5.00;;;4.13;;
2111;SDS011;1062;52.538;13.400;2023-04-06T02:41:49;6.60;;;3.90;;
2111;SDS011;1062;52.538;13.400;2023-04-06T02:44:15;3.80;;;3.33;;
2111;SDS011;1062;52.538;13.400;2023-04-06T02:46:40;4.47;;;3.70;;
2111;SDS011;1062;52.538;13.400;2023-04-06T02:49:06;3.60;;;3.30;;
2111;SDS011;1062;52.538;13.400;2023-04-06T02:51:32;5.33;;;4.40;;
2111;SDS011;1062;52.538;13.400;2023-04-06T02:53:58;5.33;;;4.47;;
2111;SDS011;1062;52.538;13.400;2023-04-06T02:56:24;3.97;;;3.50;;
2111;SDS011;1062;52.538;13.400;2023-04-06T02:58:51;4.37;;;3.90;;
2111;SDS011;1062;52.538;13.400;2023-04-06T03:01:17;5.23;;;3.10;;
2111;SDS011;1062;52.538;13.400;2023-04-06T03:03:42;5.20;;;4.70;;
2111;SDS011;1062;52.538;13.400;2023-04-06T03:06:08;7.07;;;4.87;;
2111;SDS011;1062;52.538;13.400;2023-04-06T03:08:34;5.83;;;4.33;;
2111;SDS011;1062;52.538;13.400;2023-04-06T03:11:00;5.00;;;4.30;;
2111;SDS011;1062;52.538;13.400;2023-04-06T03:13:25;4.40;;;4.00;;
2111;SDS011;1062;52.538;13.400;2023-04-06T03:15:51;4.53;;;4.00;;
2111;SDS011;1062;52.538;13.400;2023-04-06T03:18:20;7.03;;;5.07;;
2111;SDS011;1062;52.538;13.400;2023-04-06T03:20:49;6.30;;;4.60;;
2111;SDS011;1062;52.538;13.400;2023-04-06T03:23:16;5.77;;;4.13;;
2111;SDS011;1062;52.538;13.400;2023-04-06T03:25:41;7.30;;;4.77;;
2111;SDS011;1062;52.538;13.400;2023-04-06T03:28:07;8.00;;;5.03;;
2111;SDS011;1062;52.538;13.400;2023-04-06T03:30:33;11.27;;;5.93;;
2111;SDS011;1062;52.538;13.400;2023-04-06T03:32:59;5.00;;;4.43;;
2111;SDS011;1062;52.538;13.400;2023-04-06T03:35:25;7.57;;;4.30;;
2111;SDS011;1062;52.538;13.400;2023-04-06T03:37:51;6.27;;;5.10;;
2111;SDS011;1062;52.538;13.400;2023-04-06T03:40:16;5.87;;;5.00;;
2111;SDS011;1062;52.538;13.400;2023-04-06T03:42:42;5.70;;;5.20;;
2111;SDS011;1062;52.538;13.400;2023-04-06T03:45:08;6.10;;;5.20;;
2111;SDS011;1062;52.538;13.400;2023-04-06T03:47:34;5.80;;;4.10;;
2111;SDS011;1062;52.538;13.400;2023-04-06T03:50:00;6.83;;;5.43;;
2111;SDS011;1062;52.538;13.400;2023-04-06T03:52:25;6.57;;;5.17;;
2111;SDS011;1062;52.538;13.400;2023-04-06T03:54:51;8.63;;;6.20;;
2111;SDS011;1062;52.538;13.400;2023-04-06T03:57:17;7.10;;;6.43;;
2111;SDS011;1062;52.538;13.400;2023-04-06T03:59:42;6.20;;;4.83;;
2111;SDS011;1062;52.538;13.400;2023-04-06T04:02:08;9.67;;;4.73;;
2111;SDS011;1062;52.538;13.400;2023-04-06T04:04:34;7.60;;;6.80;;
2111;SDS011;1062;52.538;13.400;2023-04-06T04:06:59;8.40;;;6.20;;
2111;SDS011;1062;52.538;13.400;2023-04-06T04:09:25;9.07;;;5.60;;
2111;SDS011;1062;52.538;13.400;2023-04-06T04:11:51;6.93;;;5.60;;
2111;SDS011;1062;52.538;13.400;2023-04-06T04:14:16;6.20;;;5.60;;
2111;SDS011;1062;52.538;13.400;2023-04-06T04:16:42;9.73;;;6.87;;
2111;SDS011;1062;52.538;13.400;2023-04-06T04:19:08;10.23;;;7.03;;
2111;SDS011;1062;52.538;13.400;2023-04-06T04:21:41;7.93;;;6.40;;
2111;SDS011;1062;52.538;13.400;2023-04-06T04:24:09;7.97;;;6.77;;
2111;SDS011;1062;52.538;13.400;2023-04-06T04:26:34;7.20;;;5.70;;
2111;SDS011;1062;52.538;13.400;2023-04-06T04:29:00;9.30;;;6.33;;
2111;SDS011;1062;52.538;13.400;2023-04-06T04:31:26;7.93;;;6.80;;
2111;SDS011;1062;52.538;13.400;2023-04-06T04:33:51;6.07;;;5.47;;
2111;SDS011;1062;52.538;13.400;2023-04-06T04:36:17;8.67;;;6.87;;
2111;SDS011;1062;52.538;13.400;2023-04-06T04:38:43;10.73;;;7.40;;
2111;SDS011;1062;52.538;13.400;2023-04-06T04:41:08;6.60;;;5.93;;
2111;SDS011;1062;52.538;13.400;2023-04-06T04:43:34;6.27;;;5.63;;
2111;SDS011;1062;52.538;13.400;2023-04-06T04:46:00;7.90;;;5.53;;
2111;SDS011;1062;52.538;13.400;2023-04-06T04:48:25;9.53;;;6.47;;
2111;SDS011;1062;52.538;13.400;2023-04-06T04:50:51;7.43;;;6.30;;
2111;SDS011;1062;52.538;13.400;2023-04-06T04:53:17;8.37;;;6.20;;
2111;SDS011;1062;52.538;13.400;2023-04-06T04:55:42;6.20;;;5.60;;
2111;SDS011;1062;52.538;13.400;2023-04-06T04:58:08;8.67;;;7.30;;
2111;SDS011;1062;52.538;13.400;2023-04-06T05:00:36;9.33;;;7.43;;
2111;SDS011;1062;52.538;13.400;2023-04-06T05:03:02;14.37;;;8.00;;
2111;SDS011;1062;52.538;13.400;2023-04-06T05:05:29;11.37;;;6.53;;
2111;SDS011;1062;52.538;13.400;2023-04-06T05:07:56;7.83;;;5.80;;
2111;SDS011;1062;52.538;13.400;2023-04-06T05:10:21;7.60;;;6.80;;
2111;SDS011;1062;52.538;13.400;2023-04-06T05:12:47;9.40;;;7.67;;
2111;SDS011;1062;52.538;13.400;2023-04-06T05:15:13;10.37;;;7.03;;
2111;SDS011;1062;52.538;13.400;2023-04-06T05:17:39;7.10;;;6.40;;
2111;SDS011;1062;52.538;13.400;2023-04-06T05:20:07;7.70;;;6.17;;
2111;SDS011;1062;52.538;13.400;2023-04-06T05:22:33;7.87;;;7.07;;
2111;SDS011;1062;52.538;13.400;2023-04-06T05:25:00;6.87;;;6.17;;
2111;SDS011;1062;52.538;13.400;2023-04-06T05:27:27;8.17;;;6.77;;
2111;SDS011;1062;52.538;13.400;2023-04-06T05:29:53;10.40;;;7.17;;
2111;SDS011;1062;52.538;13.400;2023-04-06T05:32:22;10.93;;;6.60;;
2111;SDS011;1062;52.538;13.400;2023-04-06T05:34:50;8.07;;;5.10;;
2111;SDS011;1062;52.538;13.400;2023-04-06T05:41:29;9.50;;;7.37;;
2111;SDS011;1062;52.538;13.400;2023-04-06T05:47:38;6.60;;;5.93;;
2111;SDS011;1062;52.538;13.400;2023-04-06T05:58:24;5.80;;;5.30;;
2111;SDS011;1062;52.538;13.400;2023-04-06T06:17:47;5.53;;;5.03;;
2111;SDS011;1062;52.538;13.400;2023-04-06T06:20:39;6.27;;;5.03;;
2111;SDS011;1062;52.538;13.400;2023-04-06T06:23:26;5.23;;;4.70;;
2111;SDS011;1062;52.538;13.400;2023-04-06T06:26:02;6.13;;;4.97;;
2111;SDS011;1062;52.538;13.400;2023-04-06T06:28:53;8.03;;;5.40;;
2111;SDS011;1062;52.538;13.400;2023-04-06T06:31:30;7.00;;;5.17;;
2111;SDS011;1062;52.538;13.400;2023-04-06T06:34:27;5.70;;;4.80;;
2111;SDS011;1062;52.538;13.400;2023-04-06T06:37:00;7.40;;;5.77;;
2111;SDS011;1062;52.538;13.400;2023-04-06T06:39:30;6.43;;;5.83;;
2111;SDS011;1062;52.538;13.400;2023-04-06T06:42:09;9.90;;;5.33;;
2111;SDS011;1062;52.538;13.400;2023-04-06T06:44:37;8.50;;;5.30;;
2111;SDS011;1062;52.538;13.400;2023-04-06T06:47:12;9.10;;;5.60;;
2111;SDS011;1062;52.538;13.400;2023-04-06T06:49:53;7.00;;;5.07;;
2111;SDS011;1062;52.538;13.400;2023-04-06T06:52:25;6.23;;;5.23;;
2111;SDS011;1062;52.538;13.400;2023-04-06T06:54:51;7.57;;;6.10;;
2111;SDS011;1062;52.538;13.400;2023-04-06T06:57:16;6.60;;;4.43;;
2111;SDS011;1062;52.538;13.400;2023-04-06T06:59:42;18.97;;;10.83;;
2111;SDS011;1062;52.538;13.400;2023-04-06T07:02:08;7.00;;;6.37;;
2111;SDS011;1062;52.538;13.400;2023-04-06T07:04:33;8.53;;;5.30;;
2111;SDS011;1062;52.538;13.400;2023-04-06T07:07:00;6.80;;;4.83;;
2111;SDS011;1062;52.538;13.400;2023-04-06T07:09:26;6.53;;;5.70;;
2111;SDS011;1062;52.538;13.400;2023-04-06T07:11:52;8.37;;;4.70;;
2111;SDS011;1062;52.538;13.400;2023-04-06T07:14:18;5.33;;;4.83;;
2111;SDS011;1062;52.538;13.400;2023-04-06T07:16:44;6.57;;;5.03;;
2111;SDS011;1062;52.538;13.400;2023-04-06T07:19:13;9.00;;;5.37;;
2111;SDS011;1062;52.538;13.400;2023-04-06T07:21:38;6.90;;;4.80;;
2111;SDS011;1062;52.538;13.400;2023-04-06T07:24:04;8.13;;;4.30;;
2111;SDS011;1062;52.538;13.400;2023-04-06T07:26:30;5.30;;;4.73;;
2111;SDS011;1062;52.538;13.400;2023-04-06T07:28:56;5.90;;;4.43;;
2111;SDS011;1062;52.538;13.400;2023-04-06T07:31:24;6.63;;;4.50;;
2111;SDS011;1062;52.538;13.400;2023-04-06T07:33:50;9.37;;;3.80;;
2111;SDS011;1062;52.538;13.400;2023-04-06T07:36:15;7.33;;;4.70;;
2111;SDS011;1062;52.538;13.400;2023-04-06T07:38:41;4.97;;;3.60;;
2111;SDS011;1062;52.538;13.400;2023-04-06T07:41:07;4.50;;;4.10;;
2111;SDS011;1062;52.538;13.400;2023-04-06T07:43:32;4.60;;;3.63;;
2111;SDS011;1062;52.538;13.400;2023-04-06T07:45:58;5.80;;;4.10;;
2111;SDS011;1062;52.538;13.400;2023-04-06T07:48:25;4.77;;;4.10;;
2111;SDS011;1062;52.538;13.400;2023-04-06T07:50:51;5.87;;;4.57;;
2111;SDS011;1062;52.538;13.400;2023-04-06T07:53:17;4.50;;;4.03;;
2111;SDS011;1062;52.538;13.400;2023-04-06T07:55:42;4.77;;;4.37;;
2111;SDS011;1062;52.538;13.400;2023-04-06T07:58:08;6.30;;;3.90;;
2111;SDS011;1062;52.538;13.400;2023-04-06T08:00:34;4.10;;;3.70;;
2111;SDS011;1062;52.538;13.400;2023-04-06T08:03:00;4.40;;;3.90;;
2111;SDS011;1062;52.538;13.400;2023-04-06T08:05:25;4.07;;;3.67;;
2111;SDS011;1062;52.538;13.400;2023-04-06T08:07:54;4.07;;;3.20;;
2111;SDS011;1062;52.538;13.400;2023-04-06T08:10:19;6.17;;;3.83;;
2111;SDS011;1062;52.538;13.400;2023-04-06T08:12:45;4.40;;;3.40;;
2111;SDS011;1062;52.538;13.400;2023-04-06T08:15:11;3.70;;;3.40;;
2111;SDS011;1062;52.538;13.400;2023-04-06T08:17:36;4.37;;;3.97;;
2111;SDS011;1062;52.538;13.400;2023-04-06T08:20:02;4.20;;;3.20;;
2111;SDS011;1062;52.538;13.400;2023-04-06T08:22:28;3.93;;;3.53;;
2111;SDS011;1062;52.538;13.400;2023-04-06T08:24:54;3.70;;;3.07;;
2111;SDS011;1062;52.538;13.400;2023-04-06T08:27:20;4.87;;;2.90;;
2111;SDS011;1062;52.538;13.400;2023-04-06T08:29:45;5.10;;;3.00;;
2111;SDS011;1062;52.538;13.400;2023-04-06T08:32:12;3.80;;;2.73;;
2111;SDS011;1062;52.538;13.400;2023-04-06T08:34:38;6.80;;;3.03;;
2111;SDS011;1062;52.538;13.400;2023-04-06T08:37:03;4.60;;;3.03;;
2111;SDS011;1062;52.538;13.400;2023-04-06T08:39:30;2.50;;;2.30;;
2111;SDS011;1062;52.538;13.400;2023-04-06T08:41:56;3.47;;;2.70;;
2111;SDS011;1062;52.538;13.400;2023-04-06T08:44:22;2.90;;;2.60;;
2111;SDS011;1062;52.538;13.400;2023-04-06T08:46:48;3.47;;;2.80;;
2111;SDS011;1062;52.538;13.400;2023-04-06T08:49:16;6.10;;;4.23;;
2111;SDS011;1062;52.538;13.400;2023-04-06T08:51:41;4.13;;;2.73;;
2111;SDS011;1062;52.538;13.400;2023-04-06T08:54:07;2.70;;;2.50;;
2111;SDS011;1062;52.538;13.400;2023-04-06T08:56:33;3.20;;;2.13;;
2111;SDS011;1062;52.538;13.400;2023-04-06T08:59:02;2.00;;;1.80;;
2111;SDS011;1062;52.538;13.400;2023-04-06T09:01:28;3.30;;;2.70;;
2111;SDS011;1062;52.538;13.400;2023-04-06T09:03:56;2.80;;;2.60;;
2111;SDS011;1062;52.538;13.400;2023-04-06T09:06:24;3.17;;;2.87;;
2111;SDS011;1062;52.538;13.400;2023-04-06T09:08:53;3.17;;;2.23;;
2111;SDS011;1062;52.538;13.400;2023-04-06T09:11:20;2.67;;;2.07;;
2111;SDS011;1062;52.538;13.400;2023-04-06T09:16:14;2.53;;;2.07;;
2111;SDS011;1062;52.538;13.400;2023-04-06T09:18:40;2.57;;;1.83;;
2111;SDS011;1062;52.538;13.400;2023-04-06T09:21:06;4.03;;;2.20;;
2111;SDS011;1062;52.538;13.400;2023-04-06T09:23:33;2.27;;;1.93;;
2111;SDS011;1062;52.538;13.400;2023-04-06T09:26:09;2.10;;;1.80;;
2111;SDS011;1062;52.538;13.400;2023-04-06T09:28:49;3.90;;;2.33;;
2111;SDS011;1062;52.538;13.400;2023-04-06T09:31:26;4.10;;;2.17;;
2111;SDS011;1062;52.538;13.400;2023-04-06T09:33:53;3.00;;;1.90;;
2111;SDS011;1062;52.538;13.400;2023-04-06T09:36:28;2.70;;;2.40;;
2111;SDS011;1062;52.538;13.400;2023-04-06T09:38:59;2.93;;;2.20;;
2111;SDS011;1062;52.538;13.400;2023-04-06T09:41:26;1.90;;;1.57;;
2111;SDS011;1062;52.538;13.400;2023-04-06T09:46:33;5.27;;;2.20;;
2111;SDS011;1062;52.538;13.400;2023-04-06T09:49:01;3.10;;;2.30;;
2111;SDS011;1062;52.538;13.400;2023-04-06T09:51:28;2.53;;;2.30;;
2111;SDS011;1062;52.538;13.400;2023-04-06T09:54:01;2.20;;;2.00;;
2111;SDS011;1062;52.538;13.400;2023-04-06T09:56:31;3.83;;;2.10;;
2111;SDS011;1062;52.538;13.400;2023-04-06T09:59:05;2.63;;;1.63;;
2111;SDS011;1062;52.538;13.400;2023-04-06T10:01:37;5.90;;;5.30;;
2111;SDS011;1062;52.538;13.400;2023-04-06T10:06:43;2.53;;;2.20;;
2111;SDS011;1062;52.538;13.400;2023-04-06T10:09:12;2.07;;;1.80;;
2111;SDS011;1062;52.538;13.400;2023-04-06T10:11:39;3.50;;;1.97;;
2111;SDS011;1062;52.538;13.400;2023-04-06T10:14:05;2.70;;;2.50;;
2111;SDS011;1062;52.538;13.400;2023-04-06T10:16:32;5.40;;;2.23;;
2111;SDS011;1062;52.538;13.400;2023-04-06T10:19:10;6.53;;;2.20;;
2111;SDS011;1062;52.538;13.400;2023-04-06T10:21:40;3.17;;;2.00;;
2111;SDS011;1062;52.538;13.400;2023-04-06T10:24:09;2.27;;;1.83;;
2111;SDS011;1062;52.538;13.400;2023-04-06T10:26:36;3.70;;;3.40;;
2111;SDS011;1062;52.538;13.400;2023-04-06T10:29:04;3.13;;;1.87;;
2111;SDS011;1062;52.538;13.400;2023-04-06T10:31:30;2.60;;;1.73;;
2111;SDS011;1062;52.538;13.400;2023-04-06T10:33:57;2.67;;;2.00;;
2111;SDS011;1062;52.538;13.400;2023-04-06T10:36:25;2.10;;;1.90;;
2111;SDS011;1062;52.538;13.400;2023-04-06T10:38:57;2.97;;;1.77;;
2111;SDS011;1062;52.538;13.400;2023-04-06T10:43:59;2.00;;;1.80;;
2111;SDS011;1062;52.538;13.400;2023-04-06T10:46:27;1.60;;;1.50;;
2111;SDS011;1062;52.538;13.400;2023-04-06T10:48:53;1.80;;;1.70;;
2111;SDS011;1062;52.538;13.400;2023-04-06T10:51:25;3.50;;;1.60;;
2111;SDS011;1062;52.538;13.400;2023-04-06T10:53:53;2.07;;;1.57;;
2111;SDS011;1062;52.538;13.400;2023-04-06T10:56:23;2.53;;;1.80;;
2111;SDS011;1062;52.538;13.400;2023-04-06T10:58:53;2.87;;;1.80;;
2111;SDS011;1062;52.538;13.400;2023-04-06T11:01:21;2.90;;;1.97;;
2111;SDS011;1062;52.538;13.400;2023-04-06T11:03:48;1.87;;;1.77;;
2111;SDS011;1062;52.538;13.400;2023-04-06T11:06:22;1.77;;;1.67;;
2111;SDS011;1062;52.538;13.400;2023-04-06T11:08:50;1.70;;;1.60;;
2111;SDS011;1062;52.538;13.400;2023-04-06T11:11:20;2.13;;;1.63;;
2111;SDS011;1062;52.538;13.400;2023-04-06T11:13:50;2.03;;;1.87;;
2111;SDS011;1062;52.538;13.400;2023-04-06T11:16:20;3.23;;;2.10;;
2111;SDS011;1062;52.538;13.400;2023-04-06T11:21:31;1.93;;;1.40;;
2111;SDS011;1062;52.538;13.400;2023-04-06T11:24:08;2.53;;;2.00;;
2111;SDS011;1062;52.538;13.400;2023-04-06T11:26:37;1.93;;;1.80;;
2111;SDS011;1062;52.538;13.400;2023-04-06T11:29:05;1.80;;;1.70;;
2111;SDS011;1062;52.538;13.400;2023-04-06T11:31:31;2.93;;;2.00;;
2111;SDS011;1062;52.538;13.400;2023-04-06T11:34:02;2.23;;;2.10;;
2111;SDS011;1062;52.538;13.400;2023-04-06T11:36:35;2.47;;;1.70;;
2111;SDS011;1062;52.538;13.400;2023-04-06T11:39:02;2.10;;;1.90;;
2111;SDS011;1062;52.538;13.400;2023-04-06T11:41:28;2.10;;;1.90;;
2111;SDS011;1062;52.538;13.400;2023-04-06T11:43:55;2.30;;;2.20;;
2111;SDS011;1062;52.538;13.400;2023-04-06T11:46:21;2.70;;;1.83;;
2111;SDS011;1062;52.538;13.400;2023-04-06T11:48:47;2.87;;;2.40;;
2111;SDS011;1062;52.538;13.400;2023-04-06T11:51:22;1.33;;;1.23;;
2111;SDS011;1062;52.538;13.400;2023-04-06T11:53:54;2.70;;;2.50;;
2111;SDS011;1062;52.538;13.400;2023-04-06T11:56:24;1.60;;;1.50;;
2111;SDS011;1062;52.538;13.400;2023-04-06T11:58:52;2.80;;;1.80;;
2111;SDS011;1062;52.538;13.400;2023-04-06T12:01:19;3.80;;;2.20;;
2111;SDS011;1062;52.538;13.400;2023-04-06T12:03:45;2.03;;;1.83;;
2111;SDS011;1062;52.538;13.400;2023-04-06T12:06:11;2.53;;;2.30;;
2111;SDS011;1062;52.538;13.400;2023-04-06T12:08:36;2.50;;;2.07;;
2111;SDS011;1062;52.538;13.400;2023-04-06T12:11:02;3.00;;;1.77;;
2111;SDS011;1062;52.538;13.400;2023-04-06T12:13:27;2.30;;;2.10;;
2111;SDS011;1062;52.538;13.400;2023-04-06T12:15:53;2.20;;;2.00;;
2111;SDS011;1062;52.538;13.400;2023-04-06T12:18:19;3.50;;;2.27;;
2111;SDS011;1062;52.538;13.400;2023-04-06T12:20:45;3.23;;;1.93;;
2111;SDS011;1062;52.538;13.400;2023-04-06T12:23:10;2.30;;;1.70;;
2111;SDS011;1062;52.538;13.400;2023-04-06T12:25:38;2.33;;;1.90;;
2111;SDS011;1062;52.538;13.400;2023-04-06T12:28:07;2.50;;;2.30;;
2111;SDS011;1062;52.538;13.400;2023-04-06T12:30:34;2.20;;;2.00;;
2111;SDS011;1062;52.538;13.400;2023-04-06T12:33:00;1.93;;;1.83;;
2111;SDS011;1062;52.538;13.400;2023-04-06T12:35:26;2.20;;;2.00;;
2111;SDS011;1062;52.538;13.400;2023-04-06T12:37:52;2.83;;;2.33;;
2111;SDS011;1062;52.538;13.400;2023-04-06T12:40:18;2.80;;;1.90;;
2111;SDS011;1062;52.538;13.400;2023-04-06T12:42:44;2.33;;;2.13;;
2111;SDS011;1062;52.538;13.400;2023-04-06T12:45:11;2.23;;;2.03;;
2111;SDS011;1062;52.538;13.400;2023-04-06T12:47:36;2.77;;;2.40;;
2111;SDS011;1062;52.538;13.400;2023-04-06T12:50:03;3.60;;;2.50;;
2111;SDS011;1062;52.538;13.400;2023-04-06T12:52:30;2.07;;;1.87;;
2111;SDS011;1062;52.538;13.400;2023-04-06T12:54:59;2.30;;;2.10;;
2111;SDS011;1062;52.538;13.400;2023-04-06T12:57:26;2.40;;;2.20;;
2111;SDS011;1062;52.538;13.400;2023-04-06T12:59:52;2.70;;;2.50;;
2111;SDS011;1062;52.538;13.400;2023-04-06T13:02:18;2.17;;;1.93;;
2111;SDS011;1062;52.538;13.400;2023-04-06T13:04:45;2.30;;;1.80;;
2111;SDS011;1062;52.538;13.400;2023-04-06T13:07:11;3.00;;;2.00;;
2111;SDS011;1062;52.538;13.400;2023-04-06T13:09:36;2.37;;;1.77;;
2111;SDS011;1062;52.538;13.400;2023-04-06T13:12:02;2.03;;;1.80;;
2111;SDS011;1062;52.538;13.400;2023-04-06T13:14:28;2.90;;;2.33;;
2111;SDS011;1062;52.538;13.400;2023-04-06T13:16:54;3.33;;;2.23;;
2111;SDS011;1062;52.538;13.400;2023-04-06T13:19:20;2.30;;;1.80;;
2111;SDS011;1062;52.538;13.400;2023-04-06T13:21:46;4.33;;;1.97;;
2111;SDS011;1062;52.538;13.400;2023-04-06T13:24:12;2.83;;;2.10;;
2111;SDS011;1062;52.538;13.400;2023-04-06T13:26:37;4.90;;;2.37;;
2111;SDS011;1062;52.538;13.400;2023-04-06T13:29:03;4.33;;;2.13;;
2111;SDS011;1062;52.538;13.400;2023-04-06T13:31:29;4.13;;;2.53;;
2111;SDS011;1062;52.538;13.400;2023-04-06T13:33:55;2.23;;;2.03;;
2111;SDS011;1062;52.538;13.400;2023-04-06T13:36:21;3.27;;;3.00;;
2111;SDS011;1062;52.538;13.400;2023-04-06T13:38:47;3.10;;;2.57;;
2111;SDS011;1062;52.538;13.400;2023-04-06T13:41:22;3.00;;;1.83;;
2111;SDS011;1062;52.538;13.400;2023-04-06T13:43:50;3.47;;;2.23;;
2111;SDS011;1062;52.538;13.400;2023-04-06T13:46:16;2.90;;;1.50;;
2111;SDS011;1062;52.538;13.400;2023-04-06T13:48:42;3.90;;;2.17;;
2111;SDS011;1062;52.538;13.400;2023-04-06T13:51:11;3.10;;;2.43;;
2111;SDS011;1062;52.538;13.400;2023-04-06T13:53:39;2.90;;;2.07;;
2111;SDS011;1062;52.538;13.400;2023-04-06T13:56:05;3.53;;;2.20;;
2111;SDS011;1062;52.538;13.400;2023-04-06T13:58:32;3.00;;;2.13;;
2111;SDS011;1062;52.538;13.400;2023-04-06T14:01:04;3.00;;;2.30;;
2111;SDS011;1062;52.538;13.400;2023-04-06T14:03:32;2.50;;;2.30;;
2111;SDS011;1062;52.538;13.400;2023-04-06T14:05:58;8.80;;;3.10;;
2111;SDS011;1062;52.538;13.400;2023-04-06T14:08:24;3.23;;;2.13;;
2111;SDS011;1062;52.538;13.400;2023-04-06T14:10:50;2.27;;;2.07;;
2111;SDS011;1062;52.538;13.400;2023-04-06T14:13:16;2.47;;;1.93;;
2111;SDS011;1062;52.538;13.400;2023-04-06T14:15:42;2.87;;;2.30;;
2111;SDS011;1062;52.538;13.400;2023-04-06T14:18:08;3.37;;;2.20;;
2111;SDS011;1062;52.538;13.400;2023-04-06T14:20:34;2.43;;;1.87;;
2111;SDS011;1062;52.538;13.400;2023-04-06T14:23:00;3.23;;;2.13;;
2111;SDS011;1062;52.538;13.400;2023-04-06T14:25:26;3.27;;;2.63;;
2111;SDS011;1062;52.538;13.400;2023-04-06T14:27:52;2.10;;;1.90;;
2111;SDS011;1062;52.538;13.400;2023-04-06T14:30:18;3.17;;;2.17;;
2111;SDS011;1062;52.538;13.400;2023-04-06T14:32:44;2.70;;;2.30;;
2111;SDS011;1062;52.538;13.400;2023-04-06T14:35:10;3.30;;;2.23;;
2111;SDS011;1062;52.538;13.400;2023-04-06T14:37:36;2.87;;;2.67;;
2111;SDS011;1062;52.538;13.400;2023-04-06T14:40:02;2.30;;;2.10;;
2111;SDS011;1062;52.538;13.400;2023-04-06T14:42:28;2.10;;;1.90;;
2111;SDS011;1062;52.538;13.400;2023-04-06T14:44:54;2.43;;;2.20;;
2111;SDS011;1062;52.538;13.400;2023-04-06T14:47:20;2.47;;;2.27;;
2111;SDS011;1062;52.538;13.400;2023-04-06T14:49:46;2.57;;;2.37;;
2111;SDS011;1062;52.538;13.400;2023-04-06T14:52:15;2.30;;;1.90;;
2111;SDS011;1062;52.538;13.400;2023-04-06T14:54:41;3.40;;;2.40;;
2111;SDS011;1062;52.538;13.400;2023-04-06T14:57:06;3.20;;;3.00;;
2111;SDS011;1062;52.538;13.400;2023-04-06T14:59:32;1.97;;;1.87;;
2111;SDS011;1062;52.538;13.400;2023-04-06T15:01:58;2.60;;;2.23;;
2111;SDS011;1062;52.538;13.400;2023-04-06T15:04:25;3.60;;;2.73;;
2111;SDS011;1062;52.538;13.400;2023-04-06T15:06:51;4.50;;;2.80;;
2111;SDS011;1062;52.538;13.400;2023-04-06T15:09:16;3.00;;;2.33;;
2111;SDS011;1062;52.538;13.400;2023-04-06T15:11:42;2.70;;;2.50;;
2111;SDS011;1062;52.538;13.400;2023-04-06T15:14:07;1.97;;;1.70;;
2111;SDS011;1062;52.538;13.400;2023-04-06T15:16:33;4.57;;;2.53;;
2111;SDS011;1062;52.538;13.400;2023-04-06T15:18:59;5.83;;;5.40;;
2111;SDS011;1062;52.538;13.400;2023-04-06T15:21:26;2.23;;;2.03;;
2111;SDS011;1062;52.538;13.400;2023-04-06T15:23:52;2.73;;;1.93;;
2111;SDS011;1062;52.538;13.400;2023-04-06T15:26:18;2.80;;;2.53;;
2111;SDS011;1062;52.538;13.400;2023-04-06T15:28:45;2.50;;;2.27;;
2111;SDS011;1062;52.538;13.400;2023-04-06T15:31:17;3.10;;;2.23;;
2111;SDS011;1062;52.538;13.400;2023-04-06T15:33:45;2.07;;;1.97;;
2111;SDS011;1062;52.538;13.400;2023-04-06T15:36:44;2.50;;;2.23;;
2111;SDS011;1062;52.538;13.400;2023-04-06T15:39:03;2.60;;;2.40;;
2111;SDS011;1062;52.538;13.400;2023-04-06T15:41:33;2.30;;;2.10;;
2111;SDS011;1062;52.538;13.400;2023-04-06T15:43:59;3.43;;;2.23;;
2111;SDS011;1062;52.538;13.400;2023-04-06T15:46:25;5.10;;;2.20;;